Time;durP1;ratioP1;P1;durP2;ratioP2;P2;SDS_P1;SDS_P2;PMS_P1;PMS_P2;Temp;Humidity;BMP_temperature;BMP_pressure;BME280_temperature;BME280_humidity;BME280_pressure;Samples;Min_cycle;Max_cycle;Signal;HPM_P1;HPM_P2
2024/02/22 00:02:17;;;;;;;7.10;1.20;;;;;;;;;;4949333;28;19910;-81
2024/02/22 00:04:43;;;;;;;3.38;1.10;;;;;;;;;;4950022;28;20014;-81
2024/02/22 00:07:14;;;;;;;4.60;1.20;;;;;;;;;;4950607;28;20042;-81
2024/02/22 00:09:42;;;;;;;3.97;1.00;;;;;;;;;;4950081;28;20018;-82
2024/02/22 00:12:10;;;;;;;4.18;0.75;;;;;;;;;;4981447;28;20014;-82
2024/02/22 00:14:42;;;;;;;2.35;0.90;;;;;;;;;;4945261;29;20103;-82
2024/02/22 00:17:10;;;;;;;4.85;1.27;;;;;;;;;;4960435;29;20034;-82
2024/02/22 00:19:36;;;;;;;5.50;1.00;;;;;;;;;;4930403;29;20051;-81
2024/02/22 00:22:03;;;;;;;2.88;0.95;;;;;;;;;;4938072;29;20112;-83
2024/02/22 00:24:36;;;;;;;3.50;1.20;;;;;;;;;;4939095;29;20027;-82
2024/02/22 00:27:04;;;;;;;3.00;0.88;;;;;;;;;;4940055;29;20024;-81
2024/02/22 00:29:33;;;;;;;5.18;0.90;;;;;;;;;;4949344;29;20023;-83
2024/02/22 00:32:00;;;;;;;3.05;1.17;;;;;;;;;;4942454;29;20063;-82
2024/02/22 00:34:26;;;;;;;3.15;0.77;;;;;;;;;;4942738;29;20047;-81
2024/02/22 00:36:52;;;;;;;2.45;0.90;;;;;;;;;;4927853;29;20158;-83
2024/02/22 00:39:19;;;;;;;3.72;1.00;;;;;;;;;;4959698;29;20039;-82
2024/02/22 00:41:46;;;;;;;4.50;0.80;;;;;;;;;;4928708;29;20106;-81
2024/02/22 00:44:12;;;;;;;2.05;0.77;;;;;;;;;;4945734;29;20038;-81
2024/02/22 00:46:38;;;;;;;3.13;0.80;;;;;;;;;;4946028;29;20037;-82
2024/02/22 00:49:04;;;;;;;1.65;0.80;;;;;;;;;;4930340;29;20098;-81
2024/02/22 00:51:33;;;;;;;4.65;1.00;;;;;;;;;;4945216;29;20039;-81
2024/02/22 00:53:59;;;;;;;3.00;1.27;;;;;;;;;;4929698;29;20046;-82
2024/02/22 00:56:25;;;;;;;2.95;0.90;;;;;;;;;;4946024;29;20038;-82
2024/02/22 00:58:54;;;;;;;1.65;0.77;;;;;;;;;;4929538;29;20045;-82
2024/02/22 01:01:23;;;;;;;1.55;0.70;;;;;;;;;;4942072;29;20099;-81
2024/02/22 01:03:49;;;;;;;2.83;1.02;;;;;;;;;;4928078;29;20029;-81
2024/02/22 01:06:15;;;;;;;2.78;0.80;;;;;;;;;;4927821;29;20042;-81
2024/02/22 01:08:47;;;;;;;6.00;0.80;;;;;;;;;;4957912;29;20063;-81
2024/02/22 01:11:13;;;;;;;3.42;1.13;;;;;;;;;;4935463;29;20419;-81
2024/02/22 01:13:39;;;;;;;2.75;0.95;;;;;;;;;;4948460;28;20450;-81
2024/02/22 01:16:08;;;;;;;2.90;1.00;;;;;;;;;;4916194;29;20696;-81
2024/02/22 01:18:35;;;;;;;2.17;0.88;;;;;;;;;;4936143;29;20073;-82
2024/02/22 01:21:05;;;;;;;3.73;1.00;;;;;;;;;;4925974;29;20058;-80
2024/02/22 01:23:32;;;;;;;;;;;;;;;;;;4928062;28;20027;-82
2024/02/22 01:25:58;;;;;;;2.45;0.80;;;;;;;;;;4938120;29;19918;-81
2024/02/22 01:28:25;;;;;;;2.35;0.98;;;;;;;;;;4936491;29;20403;-81
2024/02/22 01:30:53;;;;;;;3.50;1.00;;;;;;;;;;4937610;29;20475;-81
2024/02/22 01:33:19;;;;;;;3.28;1.00;;;;;;;;;;4936635;28;20081;-81
2024/02/22 01:35:46;;;;;;;2.95;0.80;;;;;;;;;;4938369;29;20031;-82
2024/02/22 01:38:16;;;;;;;3.88;1.00;;;;;;;;;;4939260;29;20062;-81
2024/02/22 01:40:45;;;;;;;2.90;1.05;;;;;;;;;;4938340;29;20047;-81
2024/02/22 01:43:20;;;;;;;2.15;1.10;;;;;;;;;;4922050;29;20039;-82
2024/02/22 01:45:49;;;;;;;1.77;0.80;;;;;;;;;;4952832;29;20035;-81
2024/02/22 01:48:17;;;;;;;1.15;0.50;;;;;;;;;;4955295;29;20042;-81
2024/02/22 01:50:52;;;;;;;1.50;0.70;;;;;;;;;;4940557;29;20046;-81
2024/02/22 01:53:19;;;;;;;2.38;0.70;;;;;;;;;;4940813;28;20036;-81
2024/02/22 01:55:53;;;;;;;2.22;0.85;;;;;;;;;;4940064;29;20047;-81
2024/02/22 01:58:39;;;;;;;4.22;0.73;;;;;;;;;;4938758;29;20071;-81
2024/02/22 02:01:18;;;;;;;7.80;1.25;;;;;;;;;;4938698;29;20046;-82
2024/02/22 02:03:46;;;;;;;2.03;0.80;;;;;;;;;;4924750;29;20030;-81
2024/02/22 02:06:15;;;;;;;2.70;0.90;;;;;;;;;;4957053;29;20513;-81
2024/02/22 02:08:43;;;;;;;1.52;0.70;;;;;;;;;;4941097;29;20411;-82
2024/02/22 02:11:09;;;;;;;1.33;0.73;;;;;;;;;;4939549;29;20027;-82
2024/02/22 02:13:40;;;;;;;2.97;1.08;;;;;;;;;;4940872;28;20224;-82
2024/02/22 02:16:08;;;;;;;1.98;0.95;;;;;;;;;;4940355;29;20489;-82
2024/02/22 02:18:35;;;;;;;2.88;1.00;;;;;;;;;;4938591;29;20439;-81
2024/02/22 02:21:24;;;;;;;2.72;0.80;;;;;;;;;;4936295;29;20067;-82
2024/02/22 02:23:50;;;;;;;2.40;1.00;;;;;;;;;;4864808;29;20047;-81
2024/02/22 02:26:16;;;;;;;2.97;1.00;;;;;;;;;;4863117;29;20036;-81
2024/02/22 02:28:43;;;;;;;5.07;1.23;;;;;;;;;;4894945;29;20041;-82
2024/02/22 02:31:09;;;;;;;2.13;0.98;;;;;;;;;;4878834;29;20059;-81
2024/02/22 02:33:36;;;;;;;2.63;1.20;;;;;;;;;;4880703;29;20036;-81
2024/02/22 02:36:03;;;;;;;3.25;0.93;;;;;;;;;;4861439;29;20044;-82
2024/02/22 02:38:29;;;;;;;2.40;1.20;;;;;;;;;;4894763;29;20044;-82
2024/02/22 02:40:55;;;;;;;3.42;0.90;;;;;;;;;;4864871;29;20055;-81
2024/02/22 02:43:21;;;;;;;3.10;1.23;;;;;;;;;;4883505;29;20032;-81
2024/02/22 02:45:46;;;;;;;2.30;1.05;;;;;;;;;;4885607;29;20036;-81
2024/02/22 02:48:14;;;;;;;3.38;1.35;;;;;;;;;;4896676;29;20083;-81
2024/02/22 02:50:40;;;;;;;4.82;1.38;;;;;;;;;;4903379;29;20039;-83
2024/02/22 02:53:06;;;;;;;3.25;1.23;;;;;;;;;;4902613;29;20036;-81
2024/02/22 02:55:33;;;;;;;3.22;1.40;;;;;;;;;;4884949;29;20047;-82
2024/02/22 02:58:00;;;;;;;3.13;0.90;;;;;;;;;;4901211;29;20037;-81
2024/02/22 03:00:26;;;;;;;2.40;1.20;;;;;;;;;;4919276;29;20046;-81
2024/02/22 03:02:56;;;;;;;2.05;0.80;;;;;;;;;;4960022;29;20034;-81
2024/02/22 03:05:23;;;;;;;4.97;1.35;;;;;;;;;;4944151;29;20027;-81
2024/02/22 03:07:50;;;;;;;3.03;1.13;;;;;;;;;;4942858;29;20107;-80
2024/02/22 03:10:16;;;;;;;2.42;1.20;;;;;;;;;;4942422;29;20090;-80
2024/02/22 03:12:42;;;;;;;6.25;1.00;;;;;;;;;;4946150;29;20087;-81
2024/02/22 03:15:08;;;;;;;2.97;1.15;;;;;;;;;;4947439;29;20045;-81
2024/02/22 03:17:34;;;;;;;3.78;1.23;;;;;;;;;;4947538;29;20031;-81
2024/02/22 03:20:00;;;;;;;3.10;1.83;;;;;;;;;;4946643;29;20034;-83
2024/02/22 03:22:26;;;;;;;3.78;1.20;;;;;;;;;;4930058;29;20076;-82
2024/02/22 03:24:51;;;;;;;2.10;1.10;;;;;;;;;;4944530;29;20434;-81
2024/02/22 03:27:17;;;;;;;3.40;1.27;;;;;;;;;;4939544;29;20031;-82
2024/02/22 03:29:46;;;;;;;4.90;1.17;;;;;;;;;;4926372;29;20046;-82
2024/02/22 03:32:12;;;;;;;2.72;1.20;;;;;;;;;;4944113;29;20027;-80
2024/02/22 03:34:38;;;;;;;2.55;1.25;;;;;;;;;;4941640;29;20045;-82
2024/02/22 03:37:03;;;;;;;2.33;1.17;;;;;;;;;;4956643;29;20032;-82
2024/02/22 03:39:29;;;;;;;2.97;1.10;;;;;;;;;;4942498;29;20039;-82
2024/02/22 03:41:55;;;;;;;3.85;1.05;;;;;;;;;;4944434;29;20031;-81
2024/02/22 03:44:21;;;;;;;2.17;1.02;;;;;;;;;;4941731;29;20031;-82
2024/02/22 03:46:47;;;;;;;2.38;1.20;;;;;;;;;;4938200;29;20108;-81
2024/02/22 03:49:13;;;;;;;2.42;1.15;;;;;;;;;;4938040;29;20039;-80
2024/02/22 03:51:38;;;;;;;3.67;1.40;;;;;;;;;;4954316;29;20042;-82
2024/02/22 03:54:04;;;;;;;2.90;1.00;;;;;;;;;;4942028;29;20054;-82
2024/02/22 03:56:32;;;;;;;2.78;1.08;;;;;;;;;;4926129;29;20039;-81
2024/02/22 03:58:58;;;;;;;3.33;1.50;;;;;;;;;;4940260;29;20051;-81
2024/02/22 04:01:23;;;;;;;3.38;1.38;;;;;;;;;;4971491;29;20050;-81
2024/02/22 04:03:49;;;;;;;2.80;1.20;;;;;;;;;;4939462;29;20106;-81
2024/02/22 04:06:15;;;;;;;3.03;1.05;;;;;;;;;;4953435;29;20220;-82
2024/02/22 04:08:41;;;;;;;2.92;1.45;;;;;;;;;;4936835;29;20398;-83
2024/02/22 04:11:06;;;;;;;2.58;1.15;;;;;;;;;;4936708;29;20035;-80
2024/02/22 04:13:32;;;;;;;3.45;1.50;;;;;;;;;;4952219;28;20529;-81
2024/02/22 04:15:58;;;;;;;1.95;1.00;;;;;;;;;;4954182;29;20035;-81
2024/02/22 04:18:24;;;;;;;2.60;1.23;;;;;;;;;;4938471;29;20038;-81
2024/02/22 04:20:50;;;;;;;2.22;1.10;;;;;;;;;;4935228;29;20148;-80
2024/02/22 04:23:15;;;;;;;2.72;1.20;;;;;;;;;;4934106;29;20394;-81
2024/02/22 04:25:41;;;;;;;3.30;1.10;;;;;;;;;;4933228;28;20035;-81
2024/02/22 04:28:07;;;;;;;1.95;0.90;;;;;;;;;;4947446;29;20128;-81
2024/02/22 04:30:34;;;;;;;2.88;1.20;;;;;;;;;;4934238;29;20027;-81
2024/02/22 04:32:59;;;;;;;3.30;1.48;;;;;;;;;;4938482;29;20035;-81
2024/02/22 04:35:25;;;;;;;2.40;1.00;;;;;;;;;;4938653;29;20498;-82
2024/02/22 04:37:53;;;;;;;1.95;1.00;;;;;;;;;;4940059;29;20115;-81
2024/02/22 04:40:18;;;;;;;2.92;1.30;;;;;;;;;;4940528;29;20051;-81
2024/02/22 04:42:44;;;;;;;5.15;1.23;;;;;;;;;;4938609;29;20035;-82
2024/02/22 04:45:13;;;;;;;2.90;1.38;;;;;;;;;;4923990;29;20035;-82
2024/02/22 04:47:39;;;;;;;2.83;1.38;;;;;;;;;;4941272;29;20038;-81
2024/02/22 04:50:05;;;;;;;1.98;1.15;;;;;;;;;;4942174;29;20033;-81
2024/02/22 04:52:31;;;;;;;4.45;1.40;;;;;;;;;;4925406;29;20044;-82
2024/02/22 04:54:59;;;;;;;2.03;1.10;;;;;;;;;;4923374;29;20106;-80
2024/02/22 04:57:25;;;;;;;4.10;1.60;;;;;;;;;;4928951;29;20050;-81
2024/02/22 04:59:50;;;;;;;2.72;1.20;;;;;;;;;;4933228;29;20035;-81
2024/02/22 05:02:16;;;;;;;3.45;1.10;;;;;;;;;;4937191;29;20106;-81
2024/02/22 05:04:42;;;;;;;2.38;1.10;;;;;;;;;;4922353;29;20414;-81
2024/02/22 05:07:08;;;;;;;3.58;1.13;;;;;;;;;;4940023;29;20035;-81
2024/02/22 05:09:33;;;;;;;3.58;1.13;;;;;;;;;;4939379;29;20046;-81
2024/02/22 05:11:59;;;;;;;1.83;0.95;;;;;;;;;;4938392;29;20046;-81
2024/02/22 05:14:25;;;;;;;3.25;1.10;;;;;;;;;;4917594;29;20045;-81
2024/02/22 05:16:52;;;;;;;1.60;1.00;;;;;;;;;;4930535;29;20443;-82
2024/02/22 05:19:17;;;;;;;3.10;0.80;;;;;;;;;;4914885;29;20499;-81
2024/02/22 05:21:43;;;;;;;3.58;1.15;;;;;;;;;;4944105;29;20069;-82
2024/02/22 05:24:12;;;;;;;3.83;1.20;;;;;;;;;;4929789;29;20398;-80
2024/02/22 05:26:37;;;;;;;;;;;;;;;;;;4937492;29;20086;-82
2024/02/22 05:29:03;;;;;;;2.53;1.27;;;;;;;;;;4944124;29;19975;-80
2024/02/22 05:31:29;;;;;;;3.72;1.23;;;;;;;;;;4942844;29;20027;-80
2024/02/22 05:33:55;;;;;;;2.70;1.10;;;;;;;;;;4967240;29;20295;-81
2024/02/22 05:36:22;;;;;;;2.42;1.23;;;;;;;;;;4952446;29;20031;-81
2024/02/22 05:38:48;;;;;;;4.07;1.23;;;;;;;;;;4943893;29;20054;-82
2024/02/22 05:41:14;;;;;;;2.58;1.20;;;;;;;;;;4928929;29;20037;-81
2024/02/22 05:43:40;;;;;;;7.22;1.55;;;;;;;;;;4919044;28;20079;-83
2024/02/22 05:46:06;;;;;;;2.75;1.27;;;;;;;;;;4926241;29;20031;-81
2024/02/22 05:48:33;;;;;;;7.45;1.80;;;;;;;;;;4940759;29;20392;-80
2024/02/22 05:50:59;;;;;;;3.25;1.65;;;;;;;;;;4956944;29;20062;-82
2024/02/22 05:53:24;;;;;;;4.55;1.98;;;;;;;;;;4953743;28;20070;-82
2024/02/22 05:55:50;;;;;;;3.67;1.58;;;;;;;;;;4935634;29;20039;-82
2024/02/22 05:58:17;;;;;;;6.30;2.30;;;;;;;;;;4918340;29;20505;-81
2024/02/22 06:00:45;;;;;;;4.10;1.80;;;;;;;;;;4935323;29;20035;-82
2024/02/22 06:03:12;;;;;;;7.28;2.00;;;;;;;;;;4937034;29;20039;-81
2024/02/22 06:05:38;;;;;;;3.72;1.58;;;;;;;;;;4937015;29;20477;-82
2024/02/22 06:08:04;;;;;;;6.55;1.90;;;;;;;;;;4937101;29;20035;-81
2024/02/22 06:10:30;;;;;;;4.00;1.55;;;;;;;;;;4936860;29;20039;-82
2024/02/22 06:12:56;;;;;;;1.73;1.10;;;;;;;;;;4920239;29;20035;-81
2024/02/22 06:15:22;;;;;;;2.97;1.38;;;;;;;;;;4933478;29;20035;-81
2024/02/22 06:17:49;;;;;;;3.92;1.77;;;;;;;;;;4933702;29;20046;-81
2024/02/22 06:20:16;;;;;;;3.90;1.70;;;;;;;;;;4952002;29;20094;-82
2024/02/22 06:22:41;;;;;;;5.63;1.90;;;;;;;;;;4921185;29;20071;-82
2024/02/22 06:25:08;;;;;;;3.78;1.60;;;;;;;;;;4937090;29;20031;-82
2024/02/22 06:27:34;;;;;;;3.90;1.90;;;;;;;;;;4938500;29;20039;-81
2024/02/22 06:30:00;;;;;;;5.20;1.65;;;;;;;;;;4938728;29;20054;-81
2024/02/22 06:32:26;;;;;;;4.53;1.60;;;;;;;;;;4925093;29;20035;-82
2024/02/22 06:34:54;;;;;;;4.88;1.58;;;;;;;;;;4939202;29;20095;-82
2024/02/22 06:37:20;;;;;;;4.47;1.88;;;;;;;;;;4940391;29;20035;-82
2024/02/22 06:39:46;;;;;;;5.78;1.50;;;;;;;;;;4925237;29;20062;-81
2024/02/22 06:42:14;;;;;;;;;;;;;;;;;;4939586;29;20035;-81
2024/02/22 06:44:45;;;;;;;3.85;1.70;;;;;;;;;;4933629;29;19978;-81
2024/02/22 06:47:12;;;;;;;3.10;1.27;;;;;;;;;;4948018;29;20027;-81
2024/02/22 06:49:38;;;;;;;4.68;1.77;;;;;;;;;;4948335;29;20039;-80
2024/02/22 06:52:05;;;;;;;3.45;1.80;;;;;;;;;;4934681;29;20098;-82
2024/02/22 06:54:31;;;;;;;3.88;1.70;;;;;;;;;;4934081;29;20039;-81
2024/02/22 06:56:57;;;;;;;3.90;1.60;;;;;;;;;;4935667;29;20050;-81
2024/02/22 06:59:24;;;;;;;3.90;1.65;;;;;;;;;;4939545;29;20110;-82
2024/02/22 07:01:50;;;;;;;3.33;1.30;;;;;;;;;;4920437;29;20039;-82
2024/02/22 07:04:16;;;;;;;4.47;1.40;;;;;;;;;;4933592;29;20414;-81
2024/02/22 07:06:42;;;;;;;5.05;1.63;;;;;;;;;;4935698;29;20042;-81
2024/02/22 07:09:08;;;;;;;3.83;1.67;;;;;;;;;;4921524;29;20039;-83
2024/02/22 07:11:34;;;;;;;3.92;1.52;;;;;;;;;;4938137;29;20042;-83
2024/02/22 07:14:00;;;;;;;3.65;1.10;;;;;;;;;;4937273;29;20039;-82
2024/02/22 07:16:27;;;;;;;5.07;1.77;;;;;;;;;;4937856;29;20081;-82
2024/02/22 07:18:53;;;;;;;3.58;1.60;;;;;;;;;;4940495;29;20095;-81
2024/02/22 07:21:21;;;;;;;3.47;1.80;;;;;;;;;;4955430;29;20031;-81
2024/02/22 07:23:47;;;;;;;5.05;2.17;;;;;;;;;;4939869;29;20058;-81
2024/02/22 07:26:12;;;;;;;5.60;2.20;;;;;;;;;;4923422;29;20042;-81
2024/02/22 07:28:39;;;;;;;4.15;1.65;;;;;;;;;;4941840;29;20039;-81
2024/02/22 07:31:05;;;;;;;2.90;1.30;;;;;;;;;;4924570;29;20042;-82
2024/02/22 07:33:32;;;;;;;4.50;1.75;;;;;;;;;;4937957;28;20041;-82
2024/02/22 07:35:58;;;;;;;8.80;2.25;;;;;;;;;;4933628;29;20070;-82
2024/02/22 07:38:24;;;;;;;5.32;1.95;;;;;;;;;;4936641;29;20102;-80
2024/02/22 07:40:51;;;;;;;6.28;1.63;;;;;;;;;;4922041;29;20036;-81
2024/02/22 07:43:17;;;;;;;3.38;1.73;;;;;;;;;;4921032;28;20037;-81
2024/02/22 07:45:43;;;;;;;7.75;1.65;;;;;;;;;;4922440;29;20487;-81
2024/02/22 07:48:09;;;;;;;3.42;1.40;;;;;;;;;;4918804;29;20041;-82
2024/02/22 07:50:35;;;;;;;2.88;1.17;;;;;;;;;;4948157;29;20055;-81
2024/02/22 07:53:01;;;;;;;3.45;1.48;;;;;;;;;;4916002;29;20031;-81
2024/02/22 07:55:28;;;;;;;3.95;1.40;;;;;;;;;;4930757;29;20494;-80
2024/02/22 07:57:54;;;;;;;2.70;1.00;;;;;;;;;;4930642;29;20074;-81
2024/02/22 08:00:20;;;;;;;4.60;1.40;;;;;;;;;;4914659;28;20062;-80
2024/02/22 08:02:46;;;;;;;2.20;1.02;;;;;;;;;;4915601;29;20431;-82
2024/02/22 08:05:12;;;;;;;2.47;0.98;;;;;;;;;;4915491;29;20090;-80
2024/02/22 08:07:39;;;;;;;2.35;1.10;;;;;;;;;;4916016;29;20102;-82
2024/02/22 08:10:06;;;;;;;7.75;1.35;;;;;;;;;;4933039;29;20039;-80
2024/02/22 08:12:34;;;;;;;2.35;1.10;;;;;;;;;;4933800;29;20114;-81
2024/02/22 08:15:01;;;;;;;2.85;1.13;;;;;;;;;;4921858;29;20110;-82
2024/02/22 08:17:31;;;;;;;3.17;1.20;;;;;;;;;;4925576;29;20050;-81
2024/02/22 08:19:56;;;;;;;5.05;1.50;;;;;;;;;;4925230;29;20043;-83
2024/02/22 08:22:22;;;;;;;2.78;1.15;;;;;;;;;;4941705;29;20071;-81
2024/02/22 08:24:48;;;;;;;3.90;1.15;;;;;;;;;;4922120;29;20045;-80
2024/02/22 08:27:15;;;;;;;3.70;1.08;;;;;;;;;;4917698;29;20034;-81
2024/02/22 08:29:42;;;;;;;3.67;1.30;;;;;;;;;;4918209;29;20504;-80
2024/02/22 08:32:07;;;;;;;4.65;1.48;;;;;;;;;;4933126;29;20039;-81
2024/02/22 08:34:33;;;;;;;3.50;1.17;;;;;;;;;;4916723;29;20070;-81
2024/02/22 08:36:59;;;;;;;2.10;0.95;;;;;;;;;;4915297;29;20035;-81
2024/02/22 08:39:25;;;;;;;2.80;1.10;;;;;;;;;;4916000;29;20050;-81
2024/02/22 08:41:56;;;;;;;3.03;1.20;;;;;;;;;;4932324;29;20023;-82
2024/02/22 08:44:28;;;;;;;1.95;0.80;;;;;;;;;;4922483;29;20031;-82
2024/02/22 08:47:03;;;;;;;2.30;1.10;;;;;;;;;;4950254;29;20034;-82
2024/02/22 08:49:32;;;;;;;3.63;0.82;;;;;;;;;;4934416;29;20035;-80
2024/02/22 08:51:57;;;;;;;2.63;1.00;;;;;;;;;;4934776;29;20031;-81
2024/02/22 08:54:27;;;;;;;2.20;0.90;;;;;;;;;;4932751;29;20094;-81
2024/02/22 08:56:53;;;;;;;3.15;0.90;;;;;;;;;;4915769;29;20488;-81
2024/02/22 08:59:20;;;;;;;8.05;1.10;;;;;;;;;;4932261;29;20043;-81
2024/02/22 09:01:47;;;;;;;1.70;0.73;;;;;;;;;;4931123;29;20087;-82
2024/02/22 09:04:13;;;;;;;2.70;0.63;;;;;;;;;;4914242;29;20031;-81
2024/02/22 09:06:38;;;;;;;2.42;0.80;;;;;;;;;;4930240;29;20038;-82
2024/02/22 09:09:07;;;;;;;2.75;0.80;;;;;;;;;;4951694;29;20125;-81
2024/02/22 09:11:33;;;;;;;1.77;0.77;;;;;;;;;;4937974;29;20039;-82
2024/02/22 09:13:59;;;;;;;1.15;0.60;;;;;;;;;;4918276;29;20062;-81
2024/02/22 09:16:25;;;;;;;3.40;1.00;;;;;;;;;;4917807;29;20042;-80
2024/02/22 09:18:51;;;;;;;1.85;0.85;;;;;;;;;;4918889;29;20110;-82
2024/02/22 09:21:16;;;;;;;1.63;0.60;;;;;;;;;;4936874;29;20035;-81
2024/02/22 09:23:44;;;;;;;1.42;0.70;;;;;;;;;;4922164;29;20035;-81
2024/02/22 09:26:12;;;;;;;2.33;0.82;;;;;;;;;;4920192;29;20482;-82
2024/02/22 09:28:38;;;;;;;0.77;0.50;;;;;;;;;;4923536;29;20015;-82
2024/02/22 09:31:07;;;;;;;2.10;0.60;;;;;;;;;;4938454;29;20042;-81
2024/02/22 09:33:32;;;;;;;0.63;0.47;;;;;;;;;;4921919;28;20051;-83
2024/02/22 09:35:58;;;;;;;2.38;0.77;;;;;;;;;;4921762;29;20050;-82
2024/02/22 09:38:24;;;;;;;2.10;0.70;;;;;;;;;;4921642;29;20039;-82
2024/02/22 09:40:50;;;;;;;2.80;0.80;;;;;;;;;;4921031;29;20035;-81
2024/02/22 09:43:17;;;;;;;10.20;0.90;;;;;;;;;;4936191;29;20035;-81
2024/02/22 09:45:44;;;;;;;1.50;0.60;;;;;;;;;;4919133;29;20499;-81
2024/02/22 09:48:10;;;;;;;2.95;0.47;;;;;;;;;;4934604;29;20034;-81
2024/02/22 09:50:37;;;;;;;1.73;0.60;;;;;;;;;;4916403;29;20039;-81
2024/02/22 09:53:03;;;;;;;2.92;0.50;;;;;;;;;;4935073;29;20039;-81
2024/02/22 09:55:29;;;;;;;0.57;0.38;;;;;;;;;;4916359;29;20039;-81
2024/02/22 09:57:56;;;;;;;7.80;1.10;;;;;;;;;;4918100;29;20039;-82
2024/02/22 10:00:22;;;;;;;2.13;0.50;;;;;;;;;;4950146;29;20463;-83
2024/02/22 10:02:49;;;;;;;2.72;0.40;;;;;;;;;;4920505;29;20078;-82
2024/02/22 10:05:16;;;;;;;0.95;0.43;;;;;;;;;;4919196;29;20113;-81
2024/02/22 10:07:43;;;;;;;3.80;0.40;;;;;;;;;;4920468;29;20027;-83
2024/02/22 10:10:11;;;;;;;1.48;0.63;;;;;;;;;;4957207;29;20031;-81
2024/02/22 10:12:43;;;;;;;0.82;0.40;;;;;;;;;;4925179;29;20063;-82
2024/02/22 10:15:20;;;;;;;0.57;0.32;;;;;;;;;;4925931;29;20035;-81
2024/02/22 10:17:47;;;;;;;0.85;0.50;;;;;;;;;;4925788;29;20046;-82
2024/02/22 10:20:13;;;;;;;1.52;0.40;;;;;;;;;;4942008;29;20036;-82
2024/02/22 10:22:42;;;;;;;2.13;0.57;;;;;;;;;;4939487;29;20089;-82
2024/02/22 10:25:14;;;;;;;0.82;0.40;;;;;;;;;;4925068;29;20031;-83
2024/02/22 10:27:46;;;;;;;6.55;0.65;;;;;;;;;;4947238;29;20070;-82
2024/02/22 10:30:12;;;;;;;2.00;0.68;;;;;;;;;;4930827;29;20039;-83
2024/02/22 10:32:42;;;;;;;2.97;0.52;;;;;;;;;;4914327;29;20054;-83
2024/02/22 10:35:11;;;;;;;2.42;0.55;;;;;;;;;;4929840;29;20035;-82
2024/02/22 10:37:38;;;;;;;1.20;0.40;;;;;;;;;;4944670;29;20054;-82
2024/02/22 10:40:09;;;;;;;2.03;0.45;;;;;;;;;;4930575;29;20082;-82
2024/02/22 10:42:36;;;;;;;6.28;1.20;;;;;;;;;;4961872;29;20110;-82
2024/02/22 10:45:02;;;;;;;2.00;0.70;;;;;;;;;;4929827;29;20027;-82
2024/02/22 10:47:28;;;;;;;2.72;1.20;;;;;;;;;;4930631;29;20055;-82
2024/02/22 10:49:55;;;;;;;3.95;1.10;;;;;;;;;;4930296;29;20491;-83
2024/02/22 10:52:24;;;;;;;1.60;0.60;;;;;;;;;;4930894;29;20043;-83
2024/02/22 10:54:58;;;;;;;5.72;0.73;;;;;;;;;;4944281;29;20042;-82
2024/02/22 10:57:27;;;;;;;2.45;0.57;;;;;;;;;;4945085;29;20035;-82
2024/02/22 10:59:56;;;;;;;1.48;0.50;;;;;;;;;;4943608;29;20063;-83
2024/02/22 11:02:23;;;;;;;4.25;0.50;;;;;;;;;;4928360;29;20051;-82
2024/02/22 11:04:49;;;;;;;1.33;0.50;;;;;;;;;;4945266;29;20111;-83
2024/02/22 11:07:17;;;;;;;1.30;0.40;;;;;;;;;;4930081;29;20042;-82
2024/02/22 11:09:46;;;;;;;0.75;0.30;;;;;;;;;;4929302;29;20046;-83
2024/02/22 11:12:13;;;;;;;0.90;0.38;;;;;;;;;;4929770;29;20032;-81
2024/02/22 11:14:42;;;;;;;5.00;0.70;;;;;;;;;;4928420;29;20047;-82
2024/02/22 11:17:15;;;;;;;1.40;0.50;;;;;;;;;;4944961;29;20035;-81
2024/02/22 11:19:44;;;;;;;1.60;0.50;;;;;;;;;;4944235;29;20063;-81
2024/02/22 11:22:15;;;;;;;4.03;0.60;;;;;;;;;;4929086;29;20027;-82
2024/02/22 11:24:42;;;;;;;2.03;0.68;;;;;;;;;;4928608;29;20039;-82
2024/02/22 11:27:15;;;;;;;8.63;0.70;;;;;;;;;;4928940;29;20031;-82
2024/02/22 11:29:41;;;;;;;1.63;0.50;;;;;;;;;;4929074;29;20039;-82
2024/02/22 11:32:08;;;;;;;1.52;0.60;;;;;;;;;;4927652;29;20122;-83
2024/02/22 11:34:50;;;;;;;4.47;0.70;;;;;;;;;;4959219;29;20049;-83
2024/02/22 11:37:25;;;;;;;2.90;0.80;;;;;;;;;;4944827;29;20031;-82
2024/02/22 11:39:58;;;;;;;0.85;0.30;;;;;;;;;;4958963;29;20032;-81
2024/02/22 11:42:28;;;;;;;0.80;0.40;;;;;;;;;;4956238;29;20039;-82
2024/02/22 11:45:08;;;;;;;1.05;0.52;;;;;;;;;;4939897;29;20039;-81
2024/02/22 11:47:36;;;;;;;5.80;2.53;;;;;;;;;;4924487;29;20031;-81
2024/02/22 11:50:02;;;;;;;2.60;1.17;;;;;;;;;;4940320;29;20035;-81
2024/02/22 11:52:33;;;;;;;9.80;4.25;;;;;;;;;;4926024;29;20049;-81
2024/02/22 11:55:01;;;;;;;5.28;1.98;;;;;;;;;;4941608;29;20062;-81
2024/02/22 11:57:27;;;;;;;3.13;1.58;;;;;;;;;;4926010;29;20039;-81
2024/02/22 11:59:54;;;;;;;3.38;1.75;;;;;;;;;;4925232;29;20403;-83
2024/02/22 12:02:23;;;;;;;2.08;0.88;;;;;;;;;;4942503;29;20027;-81
2024/02/22 12:04:50;;;;;;;6.55;3.10;;;;;;;;;;4939705;29;20039;-81
2024/02/22 12:07:21;;;;;;;4.80;1.95;;;;;;;;;;4908207;29;20047;-80
2024/02/22 12:09:54;;;;;;;10.43;3.85;;;;;;;;;;4940545;29;20039;-81
2024/02/22 12:12:23;;;;;;;8.63;3.97;;;;;;;;;;4925793;29;20414;-82
2024/02/22 12:15:04;;;;;;;4.30;1.73;;;;;;;;;;4926532;29;20043;-82
2024/02/22 12:17:34;;;;;;;4.57;2.03;;;;;;;;;;4937115;29;20057;-81
2024/02/22 12:20:27;;;;;;;6.30;1.90;;;;;;;;;;4936669;29;20410;-82
2024/02/22 12:22:54;;;;;;;2.20;0.80;;;;;;;;;;4922765;29;20031;-82
2024/02/22 12:25:21;;;;;;;2.50;1.05;;;;;;;;;;4922226;29;20035;-82
2024/02/22 12:27:52;;;;;;;2.50;1.27;;;;;;;;;;4923307;29;20082;-82
2024/02/22 12:30:18;;;;;;;1.83;1.02;;;;;;;;;;4956574;29;20031;-81
2024/02/22 12:32:49;;;;;;;1.35;0.60;;;;;;;;;;4924954;29;20046;-81
2024/02/22 12:35:15;;;;;;;4.60;0.88;;;;;;;;;;4921568;29;20038;-82
2024/02/22 12:37:42;;;;;;;0.93;0.40;;;;;;;;;;4906883;29;20039;-81
2024/02/22 12:40:09;;;;;;;3.13;0.90;;;;;;;;;;4923124;29;20071;-81
2024/02/22 12:42:35;;;;;;;1.42;0.60;;;;;;;;;;4928215;29;20027;-82
2024/02/22 12:45:06;;;;;;;2.47;0.65;;;;;;;;;;4930226;29;20047;-84
2024/02/22 12:47:33;;;;;;;4.72;1.13;;;;;;;;;;4926214;29;20094;-81
2024/02/22 12:50:03;;;;;;;2.28;0.70;;;;;;;;;;4942479;29;20055;-82
2024/02/22 12:52:31;;;;;;;5.40;0.68;;;;;;;;;;4927382;29;20083;-81
2024/02/22 12:54:59;;;;;;;8.70;0.73;;;;;;;;;;4943125;29;20035;-81
2024/02/22 12:57:31;;;;;;;3.50;1.63;;;;;;;;;;4945049;29;20039;-82
2024/02/22 12:59:59;;;;;;;3.50;1.10;;;;;;;;;;4945319;29;20053;-82
2024/02/22 13:02:26;;;;;;;1.60;0.32;;;;;;;;;;4929875;29;20087;-82
2024/02/22 13:04:54;;;;;;;2.63;0.80;;;;;;;;;;4944182;29;20031;-82
2024/02/22 13:07:19;;;;;;;1.83;0.50;;;;;;;;;;4929957;29;20042;-81
2024/02/22 13:09:46;;;;;;;0.47;0.30;;;;;;;;;;4937056;29;20062;-83
2024/02/22 13:12:12;;;;;;;0.95;0.50;;;;;;;;;;4930742;29;20036;-83
2024/02/22 13:14:43;;;;;;;1.38;0.50;;;;;;;;;;4945651;29;20015;-82
2024/02/22 13:17:11;;;;;;;6.07;0.60;;;;;;;;;;4930578;29;20035;-83
2024/02/22 13:19:36;;;;;;;0.40;0.25;;;;;;;;;;4945916;29;20154;-82
2024/02/22 13:22:03;;;;;;;1.52;0.80;;;;;;;;;;4945757;29;20066;-83
2024/02/22 13:24:32;;;;;;;1.70;0.57;;;;;;;;;;4945752;29;20019;-82
2024/02/22 13:27:01;;;;;;;1.40;0.30;;;;;;;;;;4961413;29;20035;-82
2024/02/22 13:29:29;;;;;;;3.28;0.52;;;;;;;;;;4925077;29;20063;-81
2024/02/22 13:32:01;;;;;;;3.47;0.60;;;;;;;;;;4922666;29;20042;-81
2024/02/22 13:34:27;;;;;;;0.63;0.30;;;;;;;;;;4921835;29;20082;-82
2024/02/22 13:36:54;;;;;;;2.00;0.50;;;;;;;;;;4922556;29;20027;-81
2024/02/22 13:39:22;;;;;;;2.15;0.60;;;;;;;;;;4940769;29;20114;-83
2024/02/22 13:41:52;;;;;;;3.22;0.65;;;;;;;;;;4955548;29;20035;-82
2024/02/22 13:44:30;;;;;;;5.25;1.05;;;;;;;;;;4956355;29;20031;-83
2024/02/22 13:46:57;;;;;;;0.95;0.50;;;;;;;;;;4927377;29;20027;-80
2024/02/22 13:49:25;;;;;;;2.63;0.75;;;;;;;;;;4942530;29;20107;-83
2024/02/22 13:51:57;;;;;;;1.30;0.50;;;;;;;;;;4926592;29;20035;-82
2024/02/22 13:54:24;;;;;;;1.95;0.68;;;;;;;;;;4924653;29;20043;-83
2024/02/22 13:56:50;;;;;;;6.35;0.90;;;;;;;;;;4928141;29;20046;-82
2024/02/22 13:59:16;;;;;;;2.30;0.45;;;;;;;;;;4913955;29;20043;-81
2024/02/22 14:01:43;;;;;;;3.60;0.80;;;;;;;;;;4931822;29;20134;-82
2024/02/22 14:04:16;;;;;;;1.20;0.50;;;;;;;;;;4963447;29;20031;-83
2024/02/22 14:06:42;;;;;;;2.80;0.75;;;;;;;;;;4964234;29;20027;-82
2024/02/22 14:09:12;;;;;;;1.13;0.50;;;;;;;;;;4931208;29;20059;-82
2024/02/22 14:11:38;;;;;;;1.17;0.43;;;;;;;;;;4963971;29;20027;-83
2024/02/22 14:14:09;;;;;;;2.35;0.50;;;;;;;;;;4941842;29;20065;-82
2024/02/22 14:16:35;;;;;;;5.65;0.70;;;;;;;;;;4926518;29;20015;-82
2024/02/22 14:19:03;;;;;;;0.98;0.45;;;;;;;;;;4928598;29;20039;-81
2024/02/22 14:21:30;;;;;;;0.90;0.60;;;;;;;;;;4928412;29;20035;-82
2024/02/22 14:23:57;;;;;;;1.48;0.47;;;;;;;;;;4929228;29;20031;-82
2024/02/22 14:26:24;;;;;;;3.25;0.60;;;;;;;;;;4942405;29;20042;-81
2024/02/22 14:28:51;;;;;;;4.13;0.50;;;;;;;;;;4928237;29;20047;-80
2024/02/22 14:31:19;;;;;;;2.90;0.60;;;;;;;;;;4928251;29;20039;-81
2024/02/22 14:33:46;;;;;;;1.40;0.40;;;;;;;;;;4920125;29;20045;-82
2024/02/22 14:36:14;;;;;;;1.45;0.47;;;;;;;;;;4910702;29;20050;-81
2024/02/22 14:38:41;;;;;;;2.57;0.50;;;;;;;;;;4927749;29;20042;-82
2024/02/22 14:41:07;;;;;;;2.10;0.47;;;;;;;;;;4927488;29;20087;-82
2024/02/22 14:43:33;;;;;;;0.88;0.40;;;;;;;;;;4926964;28;20046;-82
2024/02/22 14:46:02;;;;;;;0.45;0.30;;;;;;;;;;4942989;29;20054;-81